Time;durP1;ratioP1;P1;durP2;ratioP2;P2;SDS_P1;SDS_P2;PMS_P1;PMS_P2;Temp;Humidity;BMP_temperature;BMP_pressure;BME280_temperature;BME280_humidity;BME280_pressure;Samples;Min_cycle;Max_cycle;Signal;HPM_P1;HPM_P2
2023/12/18 00:00:17;;;;;;;11.93;7.85;;;0.10;99.90;;;;;;4916409;29;20039;-69
2023/12/18 00:02:49;;;;;;;12.88;7.43;;;0.20;99.90;;;;;;4915534;29;20444;-69
2023/12/18 00:05:21;;;;;;;11.27;7.55;;;0.20;99.90;;;;;;4916101;29;20126;-69
2023/12/18 00:07:53;;;;;;;13.80;7.80;;;0.30;99.90;;;;;;4916255;29;20075;-68
2023/12/18 00:10:24;;;;;;;13.32;8.27;;;0.30;99.90;;;;;;4913611;29;20095;-69
2023/12/18 00:12:52;;;;;;;15.07;9.50;;;0.30;99.90;;;;;;4915769;29;20048;-69
2023/12/18 00:15:24;;;;;;;12.10;8.30;;;0.30;99.90;;;;;;4914856;29;20051;-69
2023/12/18 00:17:56;;;;;;;13.43;8.85;;;0.20;99.90;;;;;;4915912;29;20083;-70
2023/12/18 00:20:23;;;;;;;16.52;9.25;;;0.20;99.90;;;;;;4914811;29;20040;-69
2023/12/18 00:22:49;;;;;;;11.93;7.88;;;0.10;99.90;;;;;;4912845;29;20067;-69
2023/12/18 00:25:21;;;;;;;12.88;8.38;;;0.10;99.90;;;;;;4909089;29;20043;-69
2023/12/18 00:27:53;;;;;;;13.93;8.55;;;0.10;99.90;;;;;;4904697;29;20536;-69
2023/12/18 00:30:25;;;;;;;15.77;8.82;;;0.00;99.90;;;;;;4914623;29;20425;-69
2023/12/18 00:32:57;;;;;;;11.48;8.13;;;0.00;99.90;;;;;;4914478;29;20040;-69
2023/12/18 00:35:29;;;;;;;12.80;8.45;;;-0.10;99.90;;;;;;4913984;29;20382;-69
2023/12/18 00:38:01;;;;;;;11.20;8.02;;;-0.10;99.90;;;;;;4910463;29;20078;-69
2023/12/18 00:40:33;;;;;;;14.18;8.88;;;-0.20;99.90;;;;;;4918834;29;20535;-68
2023/12/18 00:43:05;;;;;;;11.93;9.10;;;-0.20;99.90;;;;;;4915619;29;20055;-68
2023/12/18 00:45:37;;;;;;;14.00;9.00;;;-0.20;99.90;;;;;;4912509;29;20048;-68
2023/12/18 00:48:09;;;;;;;12.85;8.32;;;-0.20;99.90;;;;;;4915466;29;20140;-69
2023/12/18 00:50:35;;;;;;;12.68;8.95;;;-0.30;99.90;;;;;;4915522;29;20036;-69
2023/12/18 00:53:07;;;;;;;12.30;8.48;;;-0.30;99.90;;;;;;4913500;29;20149;-69
2023/12/18 00:55:39;;;;;;;13.05;9.18;;;-0.30;99.90;;;;;;4906941;29;20120;-70
2023/12/18 00:58:11;;;;;;;10.70;8.05;;;-0.30;99.90;;;;;;4913186;29;20055;-69
2023/12/18 01:00:38;;;;;;;13.20;8.30;;;-0.40;99.90;;;;;;4908142;29;20048;-69
2023/12/18 01:03:09;;;;;;;12.85;8.57;;;-0.40;99.90;;;;;;4914165;29;20135;-69
2023/12/18 01:05:41;;;;;;;12.20;7.88;;;-0.40;99.90;;;;;;4914938;29;20059;-69
2023/12/18 01:08:13;;;;;;;14.02;8.90;;;-0.40;99.90;;;;;;4914946;29;20054;-69
2023/12/18 01:10:45;;;;;;;11.27;7.90;;;-0.40;99.90;;;;;;4915096;29;20138;-69
2023/12/18 01:13:12;;;;;;;13.73;8.68;;;-0.40;99.90;;;;;;4909711;29;20039;-69
2023/12/18 01:15:44;;;;;;;14.10;8.50;;;-0.40;99.90;;;;;;4923738;29;20100;-68
2023/12/18 01:18:16;;;;;;;11.70;8.60;;;-0.40;99.90;;;;;;4908127;29;20521;-69
2023/12/18 01:20:43;;;;;;;14.77;8.88;;;-0.50;99.90;;;;;;4915072;29;20047;-69
2023/12/18 01:23:14;;;;;;;13.05;7.97;;;-0.50;99.90;;;;;;4914252;29;20048;-69
2023/12/18 01:25:46;;;;;;;10.60;7.25;;;-0.50;99.90;;;;;;4914403;29;20505;-69
2023/12/18 01:28:18;;;;;;;10.80;6.97;;;-0.60;99.90;;;;;;4913653;29;20048;-68
2023/12/18 01:30:51;;;;;;;11.90;7.50;;;-0.50;99.90;;;;;;4927787;29;20604;-69
2023/12/18 01:33:23;;;;;;;10.63;7.00;;;-0.60;99.90;;;;;;4914959;29;20472;-69
2023/12/18 01:35:55;;;;;;;9.52;6.30;;;-0.60;99.90;;;;;;4911738;29;20052;-69
2023/12/18 01:38:26;;;;;;;11.30;6.38;;;-0.60;99.90;;;;;;4913392;29;20048;-69
2023/12/18 01:40:58;;;;;;;10.65;6.45;;;-0.60;99.90;;;;;;4914506;29;20060;-69
2023/12/18 01:43:30;;;;;;;9.07;6.25;;;-0.70;99.90;;;;;;4889810;29;20048;-70
2023/12/18 01:46:03;;;;;;;9.70;6.22;;;-0.60;99.90;;;;;;4913534;29;20387;-68
2023/12/18 01:48:32;;;;;;;8.65;6.20;;;-0.70;99.90;;;;;;4914713;29;20036;-67
2023/12/18 01:51:04;;;;;;;9.35;6.15;;;-0.70;99.90;;;;;;4912438;29;20044;-68
2023/12/18 01:53:42;;;;;;;9.70;6.03;;;-0.70;99.90;;;;;;4914548;29;20040;-68
2023/12/18 01:56:17;;;;;;;8.98;5.20;;;-0.70;99.90;;;;;;4901390;29;20524;-68
2023/12/18 01:58:50;;;;;;;8.38;5.57;;;-0.70;99.90;;;;;;4914366;29;20072;-68
2023/12/18 02:01:22;;;;;;;7.82;5.53;;;-0.70;99.90;;;;;;4914157;29;20417;-68
2023/12/18 02:03:55;;;;;;;9.35;6.40;;;-0.70;99.90;;;;;;4925430;29;20409;-68
2023/12/18 02:06:27;;;;;;;8.75;5.63;;;-0.60;99.90;;;;;;4909555;29;20127;-69
2023/12/18 02:09:01;;;;;;;9.20;5.38;;;-0.70;99.90;;;;;;4912604;29;20044;-68
2023/12/18 02:11:33;;;;;;;9.50;6.00;;;-0.70;99.90;;;;;;4913888;29;20096;-68
2023/12/18 02:14:05;;;;;;;10.93;6.57;;;-0.70;99.90;;;;;;4917978;29;20091;-68
2023/12/18 02:16:37;;;;;;;10.70;6.28;;;-0.70;99.90;;;;;;4913911;29;20051;-69
2023/12/18 02:19:26;;;;;;;10.60;6.35;;;-0.60;99.90;;;;;;4904257;29;20432;-69
2023/12/18 02:21:58;;;;;;;11.13;6.13;;;-0.60;99.90;;;;;;4913737;29;20076;-69
2023/12/18 02:24:25;;;;;;;10.07;6.60;;;-0.60;99.90;;;;;;4912440;29;20142;-69
2023/12/18 02:26:53;;;;;;;9.52;6.03;;;-0.60;99.90;;;;;;4912545;29;20091;-69
2023/12/18 02:29:24;;;;;;;10.38;6.45;;;-0.60;99.90;;;;;;4903602;29;20712;-68
2023/12/18 02:31:57;;;;;;;8.82;5.65;;;-0.50;99.90;;;;;;4886839;29;20063;-68
2023/12/18 02:34:29;;;;;;;8.30;5.57;;;-0.60;99.90;;;;;;4902480;29;20123;-68
2023/12/18 02:36:56;;;;;;;9.43;5.70;;;-0.60;99.90;;;;;;4896643;29;20428;-68
2023/12/18 02:39:27;;;;;;;10.20;6.38;;;-0.60;99.90;;;;;;4916053;29;20080;-69
2023/12/18 02:41:59;;;;;;;11.18;6.15;;;-0.60;99.90;;;;;;4917327;29;20059;-69
2023/12/18 02:44:31;;;;;;;9.32;6.38;;;-0.70;99.90;;;;;;4908770;29;20072;-68
2023/12/18 02:47:03;;;;;;;8.55;5.78;;;-0.70;99.90;;;;;;4908997;29;20528;-68
2023/12/18 02:49:35;;;;;;;10.23;6.15;;;-0.70;99.90;;;;;;4916076;29;20060;-68
2023/12/18 02:52:07;;;;;;;8.95;5.60;;;-0.70;99.90;;;;;;4915864;29;20075;-68
2023/12/18 02:54:39;;;;;;;8.77;5.30;;;-0.70;99.90;;;;;;4915587;29;20058;-68
2023/12/18 02:57:11;;;;;;;8.85;5.55;;;-0.80;99.90;;;;;;4904468;29;20045;-68
2023/12/18 02:59:43;;;;;;;9.80;6.13;;;-0.80;99.90;;;;;;4917061;29;20054;-68
2023/12/18 03:02:15;;;;;;;8.35;5.65;;;-0.80;99.90;;;;;;4906534;29;20462;-68
2023/12/18 03:04:47;;;;;;;8.65;6.00;;;-0.80;99.90;;;;;;4914729;29;20051;-69
2023/12/18 03:07:18;;;;;;;11.45;6.70;;;-0.80;99.90;;;;;;4915055;29;20047;-68
2023/12/18 03:09:45;;;;;;;10.05;6.10;;;-0.90;99.90;;;;;;4916570;29;20156;-69
2023/12/18 03:12:12;;;;;;;10.38;6.97;;;-0.90;99.90;;;;;;4927020;29;20156;-69
2023/12/18 03:14:44;;;;;;;9.18;5.93;;;-0.90;99.90;;;;;;4914110;29;20044;-68
2023/12/18 03:17:16;;;;;;;8.57;5.90;;;-0.90;99.90;;;;;;4915586;29;20505;-68
2023/12/18 03:19:48;;;;;;;9.55;5.97;;;-0.90;99.90;;;;;;4916506;29;20584;-69
2023/12/18 03:22:20;;;;;;;10.70;6.10;;;-0.90;99.90;;;;;;4914527;29;20044;-68
2023/12/18 03:24:52;;;;;;;10.23;6.25;;;-0.90;99.90;;;;;;4927471;29;20052;-69
2023/12/18 03:27:24;;;;;;;9.65;6.10;;;-0.90;99.90;;;;;;4907039;29;20052;-68
2023/12/18 03:29:55;;;;;;;10.70;6.70;;;-0.90;99.90;;;;;;4920682;29;20080;-68
2023/12/18 03:32:27;;;;;;;10.23;5.90;;;-0.90;99.90;;;;;;4915068;29;20044;-68
2023/12/18 03:34:59;;;;;;;9.73;6.20;;;-0.90;99.90;;;;;;4915959;29;20048;-68
2023/12/18 03:37:26;;;;;;;10.35;6.57;;;-0.90;99.90;;;;;;4904230;29;20048;-68
2023/12/18 03:39:58;;;;;;;9.02;6.43;;;-0.90;99.90;;;;;;4914958;29;20044;-67
2023/12/18 03:42:29;;;;;;;8.73;5.32;;;-0.90;99.90;;;;;;4913107;29;20052;-68
2023/12/18 03:45:01;;;;;;;9.80;6.85;;;-0.90;99.90;;;;;;4897471;29;20061;-69
2023/12/18 03:47:33;;;;;;;11.20;5.95;;;-1.00;99.90;;;;;;4891992;29;20417;-68
2023/12/18 03:49:59;;;;;;;9.77;6.20;;;-1.00;99.90;;;;;;4927464;29;20050;-69
2023/12/18 03:52:31;;;;;;;9.98;5.90;;;-1.00;99.90;;;;;;4903843;29;20048;-68
2023/12/18 03:55:03;;;;;;;8.25;5.78;;;-1.00;99.90;;;;;;4913736;29;20044;-69
2023/12/18 03:57:30;;;;;;;8.73;5.85;;;-1.10;99.90;;;;;;4907682;29;20046;-68
2023/12/18 04:00:03;;;;;;;9.73;5.75;;;-1.10;99.90;;;;;;4904400;29;20040;-69
2023/12/18 04:02:38;;;;;;;7.90;5.63;;;-1.20;99.90;;;;;;4914756;29;20044;-69
2023/12/18 04:05:10;;;;;;;10.32;6.10;;;-1.10;99.90;;;;;;4903057;29;20510;-68
2023/12/18 04:07:42;;;;;;;10.43;6.07;;;-1.10;99.90;;;;;;4914447;29;20051;-69
2023/12/18 04:10:14;;;;;;;8.52;5.80;;;-1.10;99.90;;;;;;4915353;29;20040;-68
2023/12/18 04:12:42;;;;;;;9.23;6.07;;;-1.10;99.90;;;;;;4928938;29;20040;-69
2023/12/18 04:15:14;;;;;;;9.68;5.85;;;-1.10;99.90;;;;;;4926338;29;20546;-68
2023/12/18 04:17:46;;;;;;;9.55;6.68;;;-1.10;99.90;;;;;;4916020;29;20406;-69
2023/12/18 04:20:18;;;;;;;9.40;6.32;;;-1.10;99.90;;;;;;4915151;29;20433;-68
2023/12/18 04:22:50;;;;;;;9.82;6.18;;;-1.10;99.90;;;;;;4913665;29;20425;-69
2023/12/18 04:25:17;;;;;;;10.35;7.28;;;-1.00;99.90;;;;;;4895831;29;20040;-67
2023/12/18 04:27:49;;;;;;;10.90;6.93;;;-0.90;99.90;;;;;;4915924;29;20047;-68
2023/12/18 04:30:16;;;;;;;10.25;6.68;;;-0.90;99.90;;;;;;4915740;29;20412;-68
2023/12/18 04:32:48;;;;;;;10.73;6.38;;;-0.90;99.90;;;;;;4915842;29;20424;-68
2023/12/18 04:35:20;;;;;;;12.25;6.90;;;-0.90;99.90;;;;;;4914260;29;20131;-68
2023/12/18 04:37:52;;;;;;;9.18;6.63;;;-0.80;99.90;;;;;;4904206;29;20037;-69
2023/12/18 04:40:24;;;;;;;10.65;7.05;;;-0.80;99.90;;;;;;4915728;29;20043;-68
2023/12/18 04:42:55;;;;;;;10.55;6.97;;;-0.90;99.90;;;;;;4915116;29;20055;-68
2023/12/18 04:45:27;;;;;;;9.82;6.28;;;-0.80;99.90;;;;;;4913570;29;21019;-69
2023/12/18 04:47:54;;;;;;;12.95;7.00;;;-0.90;99.90;;;;;;4915528;29;20076;-69
2023/12/18 04:50:26;;;;;;;11.80;8.13;;;-0.90;99.90;;;;;;4915589;29;20044;-69
2023/12/18 04:52:58;;;;;;;17.80;9.48;;;-0.90;99.90;;;;;;4914646;29;20037;-68
2023/12/18 04:55:30;;;;;;;12.65;8.43;;;-0.90;99.90;;;;;;4915305;29;20130;-68
2023/12/18 04:57:57;;;;;;;13.48;9.05;;;-0.90;99.90;;;;;;4901598;29;20044;-68
2023/12/18 05:00:29;;;;;;;14.55;8.02;;;-0.90;99.90;;;;;;4915359;29;20044;-68
2023/12/18 05:03:01;;;;;;;10.48;7.30;;;-0.90;99.90;;;;;;4890430;29;20048;-68
2023/12/18 05:05:33;;;;;;;11.95;7.07;;;-1.00;99.90;;;;;;4912570;29;20060;-69
2023/12/18 05:08:05;;;;;;;12.23;6.63;;;-1.00;99.90;;;;;;4894578;29;20140;-67
2023/12/18 05:10:32;;;;;;;10.50;7.25;;;-1.10;99.90;;;;;;4914406;29;20040;-70
2023/12/18 05:13:04;;;;;;;9.38;6.68;;;-1.10;99.90;;;;;;4913385;29;20048;-69
2023/12/18 05:15:36;;;;;;;9.93;6.32;;;-1.10;99.90;;;;;;4913054;29;20051;-68
2023/12/18 05:18:08;;;;;;;10.68;6.25;;;-1.20;99.90;;;;;;4913004;29;20040;-69
2023/12/18 05:20:40;;;;;;;9.32;6.93;;;-1.20;99.90;;;;;;4897346;29;20044;-69
2023/12/18 05:23:12;;;;;;;10.60;7.30;;;-1.20;99.90;;;;;;4897893;29;20048;-68
2023/12/18 05:25:39;;;;;;;11.00;6.93;;;-1.20;99.90;;;;;;4914975;29;20135;-68
2023/12/18 05:28:11;;;;;;;9.52;6.20;;;-1.20;99.90;;;;;;4912919;29;20128;-68
2023/12/18 05:30:42;;;;;;;14.48;7.40;;;-1.20;99.90;;;;;;4914301;29;20564;-68
2023/12/18 05:33:15;;;;;;;12.20;7.63;;;-1.20;99.90;;;;;;4911837;29;20585;-69
2023/12/18 05:35:46;;;;;;;15.40;9.27;;;-1.20;99.90;;;;;;4910001;29;20050;-70
2023/12/18 05:38:18;;;;;;;12.32;8.50;;;-1.10;99.90;;;;;;4914663;29;20054;-70
2023/12/18 05:40:50;;;;;;;16.08;9.50;;;-1.10;99.90;;;;;;4911258;29;20123;-70
2023/12/18 05:43:22;;;;;;;14.30;9.20;;;-1.10;99.90;;;;;;4911673;29;20122;-69
2023/12/18 05:45:49;;;;;;;14.07;8.38;;;-1.10;99.90;;;;;;4906316;29;20115;-69
2023/12/18 05:48:21;;;;;;;10.55;7.28;;;-1.10;99.90;;;;;;4907484;29;20036;-70
2023/12/18 05:50:47;;;;;;;11.23;6.80;;;-1.10;99.90;;;;;;4907671;29;20068;-69
2023/12/18 05:53:14;;;;;;;13.73;9.05;;;-1.10;99.90;;;;;;4914982;29;20040;-69
2023/12/18 05:55:46;;;;;;;31.42;14.65;;;-1.00;99.90;;;;;;4910325;29;20517;-70
2023/12/18 05:58:18;;;;;;;49.00;25.70;;;-1.00;99.90;;;;;;4939747;29;20055;-68
2023/12/18 06:00:49;;;;;;;42.10;21.63;;;-1.00;99.90;;;;;;4903075;29;20044;-69
2023/12/18 06:03:21;;;;;;;32.42;15.48;;;-1.00;99.90;;;;;;4913278;29;20067;-68
2023/12/18 06:05:53;;;;;;;24.55;12.40;;;-1.00;99.90;;;;;;4910438;29;20040;-69
2023/12/18 06:08:20;;;;;;;19.52;11.18;;;-1.10;99.90;;;;;;4906551;29;20040;-69
2023/12/18 06:10:47;;;;;;;20.02;10.50;;;-1.10;99.90;;;;;;4912810;29;20043;-69
2023/12/18 06:13:15;;;;;;;14.70;9.98;;;-1.20;99.90;;;;;;4912064;29;20049;-69
2023/12/18 06:15:47;;;;;;;13.40;8.73;;;-1.20;99.90;;;;;;4915481;29;20051;-69
2023/12/18 06:18:13;;;;;;;16.65;9.38;;;-1.20;99.90;;;;;;4916429;29;20510;-69
2023/12/18 06:20:41;;;;;;;13.38;8.52;;;-1.20;99.90;;;;;;4916778;29;20124;-68
2023/12/18 06:23:13;;;;;;;16.48;8.82;;;-1.30;99.90;;;;;;4913768;29;20465;-69
2023/12/18 06:25:45;;;;;;;14.40;8.25;;;-1.30;99.90;;;;;;4913992;29;20401;-69
2023/12/18 06:28:17;;;;;;;11.80;7.43;;;-1.30;99.90;;;;;;4915675;29;20048;-69
2023/12/18 06:30:49;;;;;;;11.30;6.93;;;-1.30;99.90;;;;;;4914561;29;20044;-69
2023/12/18 06:33:21;;;;;;;9.50;5.90;;;-1.30;99.90;;;;;;4916756;29;20100;-68
2023/12/18 06:35:53;;;;;;;12.10;6.43;;;-1.40;99.90;;;;;;4913697;29;20048;-69
2023/12/18 06:38:25;;;;;;;9.23;5.90;;;-1.40;99.90;;;;;;4916555;29;20058;-69
2023/12/18 06:40:57;;;;;;;9.02;4.90;;;-1.40;99.90;;;;;;4916325;29;20114;-69
2023/12/18 06:43:30;;;;;;;8.18;5.10;;;-1.40;99.90;;;;;;4916311;29;20409;-69
2023/12/18 06:45:59;;;;;;;7.15;4.18;;;-1.40;99.90;;;;;;4915946;29;20082;-70
2023/12/18 06:48:32;;;;;;;6.75;4.10;;;-1.40;99.90;;;;;;4914967;29;20134;-69
2023/12/18 06:51:04;;;;;;;7.03;4.30;;;-1.40;99.90;;;;;;4915991;29;20524;-69
2023/12/18 06:53:36;;;;;;;6.38;4.45;;;-1.40;99.90;;;;;;4914322;29;20036;-69
2023/12/18 06:56:08;;;;;;;7.03;4.47;;;-1.40;99.90;;;;;;4910724;29;20071;-69
2023/12/18 06:58:35;;;;;;;7.78;4.38;;;-1.40;99.90;;;;;;4915236;29;20037;-69
2023/12/18 07:01:07;;;;;;;8.10;4.15;;;-1.40;99.90;;;;;;4915233;29;20044;-68
2023/12/18 07:03:34;;;;;;;22.45;12.38;;;-1.40;99.90;;;;;;4903214;29;20433;-68
2023/12/18 07:06:06;;;;;;;30.10;17.60;;;-1.40;99.90;;;;;;4910523;29;20667;-68
2023/12/18 07:08:38;;;;;;;13.18;8.02;;;-1.40;99.90;;;;;;4915385;29;20048;-69
2023/12/18 07:11:10;;;;;;;9.63;6.18;;;-1.40;99.90;;;;;;4922642;29;20055;-70
2023/12/18 07:13:42;;;;;;;12.35;6.97;;;-1.40;99.90;;;;;;4914705;29;20036;-69
2023/12/18 07:16:24;;;;;;;11.23;5.97;;;-1.40;99.90;;;;;;4913445;29;20055;-68
2023/12/18 07:18:51;;;;;;;14.18;7.20;;;-1.40;99.90;;;;;;4915718;29;20584;-68
2023/12/18 07:21:17;;;;;;;12.88;6.90;;;-1.40;99.90;;;;;;4914818;29;20056;-69
2023/12/18 07:23:49;;;;;;;13.07;6.22;;;-1.40;99.90;;;;;;4916310;29;20040;-69
2023/12/18 07:26:16;;;;;;;12.48;6.50;;;-1.40;99.90;;;;;;4916001;29;20108;-69
2023/12/18 07:28:48;;;;;;;9.85;6.43;;;-1.40;99.90;;;;;;4912499;29;20051;-69
2023/12/18 07:31:20;;;;;;;13.48;10.55;;;-1.40;99.90;;;;;;4910437;29;20481;-69
2023/12/18 07:33:52;;;;;;;13.63;10.30;;;-1.40;99.90;;;;;;4911821;29;20048;-69
2023/12/18 07:36:19;;;;;;;12.20;8.60;;;-1.40;99.90;;;;;;4909544;29;20056;-69
2023/12/18 07:38:51;;;;;;;11.40;6.63;;;-1.40;99.90;;;;;;4913234;29;20043;-70
2023/12/18 07:41:23;;;;;;;13.25;7.70;;;-1.40;99.90;;;;;;4912266;29;20036;-69
2023/12/18 07:43:50;;;;;;;10.10;6.30;;;-1.40;99.90;;;;;;4915002;29;20040;-69
2023/12/18 07:46:20;;;;;;;11.77;7.32;;;-1.30;99.90;;;;;;4914280;29;20505;-68
2023/12/18 07:48:52;;;;;;;10.55;7.90;;;-1.30;99.90;;;;;;4906318;29;20059;-69
2023/12/18 07:51:23;;;;;;;9.23;6.60;;;-1.30;99.90;;;;;;4911371;29;20052;-69
2023/12/18 07:53:56;;;;;;;9.23;6.65;;;-1.30;99.90;;;;;;4910340;29;20127;-69
2023/12/18 07:56:27;;;;;;;10.18;7.07;;;-1.30;99.90;;;;;;4911198;29;20052;-68
2023/12/18 07:59:00;;;;;;;7.05;5.93;;;-1.30;99.90;;;;;;4911050;29;20059;-69
2023/12/18 08:01:32;;;;;;;10.45;6.13;;;-1.30;99.90;;;;;;4912478;29;20532;-70
2023/12/18 08:04:04;;;;;;;8.90;7.85;;;-1.30;99.90;;;;;;4894134;29;20420;-69
2023/12/18 08:06:35;;;;;;;12.02;10.48;;;-1.40;99.90;;;;;;4912758;29;20036;-69
2023/12/18 08:09:08;;;;;;;8.55;5.85;;;-1.30;99.90;;;;;;4909027;29;20050;-69
2023/12/18 08:11:35;;;;;;;9.25;5.70;;;-1.30;99.90;;;;;;4910368;29;20050;-70
2023/12/18 08:14:07;;;;;;;7.88;5.45;;;-1.30;99.90;;;;;;4909208;29;20070;-69
2023/12/18 08:16:39;;;;;;;8.90;5.63;;;-1.20;99.90;;;;;;4911425;29;20052;-68
2023/12/18 08:19:06;;;;;;;8.48;6.47;;;-1.20;99.90;;;;;;4911569;29;20044;-69
2023/12/18 08:21:38;;;;;;;8.10;5.68;;;-1.20;99.90;;;;;;4913358;29;20044;-70
2023/12/18 08:24:05;;;;;;;9.38;6.05;;;-1.20;99.90;;;;;;4909918;29;20127;-68
2023/12/18 08:26:36;;;;;;;7.90;6.03;;;-1.20;99.90;;;;;;4909181;29;20044;-69
2023/12/18 08:29:09;;;;;;;8.80;5.50;;;-1.10;99.90;;;;;;4897570;29;20052;-68
2023/12/18 08:31:42;;;;;;;9.18;6.13;;;-1.00;99.90;;;;;;4911343;29;20043;-69
2023/12/18 08:34:14;;;;;;;9.18;6.35;;;-0.50;99.90;;;;;;4912122;29;20054;-68
2023/12/18 08:36:46;;;;;;;10.27;6.38;;;-0.30;99.90;;;;;;4910072;29;20164;-68
2023/12/18 08:39:18;;;;;;;9.23;5.82;;;-0.20;99.90;;;;;;4910446;29;20516;-68
2023/12/18 08:41:50;;;;;;;6.95;5.35;;;-0.20;99.90;;;;;;4907982;29;20044;-68
2023/12/18 08:44:22;;;;;;;7.68;5.25;;;-0.20;99.90;;;;;;4902964;29;20544;-69
2023/12/18 08:46:54;;;;;;;8.90;6.13;;;-0.30;99.90;;;;;;4910055;29;20044;-69
2023/12/18 08:49:21;;;;;;;9.18;6.72;;;-0.30;99.90;;;;;;4911169;29;20046;-68
2023/12/18 08:51:53;;;;;;;10.35;6.03;;;-0.30;99.90;;;;;;4918091;29;20056;-69
2023/12/18 08:54:25;;;;;;;8.85;6.30;;;-0.30;99.90;;;;;;4901425;29;20522;-69
2023/12/18 08:56:56;;;;;;;8.23;5.90;;;-0.30;99.90;;;;;;4904377;29;20052;-69
2023/12/18 08:59:28;;;;;;;9.15;6.07;;;-0.20;99.90;;;;;;4919428;29;20718;-69
2023/12/18 09:02:00;;;;;;;9.02;5.63;;;-0.20;99.90;;;;;;4913399;29;20036;-69
2023/12/18 09:04:33;;;;;;;15.82;9.60;;;-0.20;99.90;;;;;;4912461;29;20516;-68
2023/12/18 09:07:00;;;;;;;12.20;8.32;;;-0.10;99.90;;;;;;4911947;29;20040;-69
2023/12/18 09:09:32;;;;;;;9.23;6.00;;;-0.10;99.90;;;;;;4908367;29;20047;-69
2023/12/18 09:12:04;;;;;;;8.45;5.28;;;-0.10;99.90;;;;;;4909657;29;20452;-69
2023/12/18 09:14:36;;;;;;;7.15;4.85;;;0.00;99.90;;;;;;4905279;29;20131;-69
2023/12/18 09:17:08;;;;;;;8.10;5.05;;;0.00;99.90;;;;;;4910697;29;20062;-68
2023/12/18 09:19:40;;;;;;;7.63;5.13;;;0.10;99.90;;;;;;4911353;29;20079;-69
2023/12/18 09:22:07;;;;;;;8.50;5.60;;;0.20;99.90;;;;;;4906099;29;20044;-69
2023/12/18 09:24:39;;;;;;;6.85;5.00;;;0.20;99.90;;;;;;4912557;29;20063;-69
2023/12/18 09:27:11;;;;;;;6.30;4.80;;;0.30;99.90;;;;;;4909720;29;20048;-69
2023/12/18 09:29:42;;;;;;;8.18;4.88;;;0.40;99.90;;;;;;4896524;29;20052;-69
2023/12/18 09:32:15;;;;;;;7.53;4.85;;;0.40;99.90;;;;;;4908446;29;20047;-69
2023/12/18 09:34:42;;;;;;;7.05;4.68;;;0.50;99.90;;;;;;4910459;29;20040;-69
2023/12/18 09:37:13;;;;;;;7.45;4.85;;;0.50;99.90;;;;;;4909262;29;20517;-69
2023/12/18 09:39:45;;;;;;;7.97;4.43;;;0.60;99.90;;;;;;4908035;29;20052;-69
2023/12/18 09:42:17;;;;;;;6.70;3.95;;;0.70;99.90;;;;;;4910308;29;20055;-69
2023/12/18 09:44:46;;;;;;;9.52;5.70;;;0.80;99.90;;;;;;4893406;29;20044;-69
2023/12/18 09:47:18;;;;;;;12.85;7.60;;;0.80;99.90;;;;;;4908766;29;20045;-69
2023/12/18 09:49:52;;;;;;;14.60;8.68;;;0.90;99.90;;;;;;4911681;29;20778;-69
2023/12/18 09:52:30;;;;;;;15.30;10.40;;;0.90;99.90;;;;;;4911573;29;20440;-69
2023/12/18 09:55:04;;;;;;;14.38;9.38;;;1.00;99.90;;;;;;4911320;29;20040;-69
2023/12/18 09:57:37;;;;;;;20.40;9.70;;;1.10;99.90;;;;;;4911617;29;20517;-69
2023/12/18 10:00:06;;;;;;;15.07;10.38;;;1.20;99.90;;;;;;4910438;29;20045;-69
2023/12/18 10:02:41;;;;;;;13.23;9.85;;;1.30;99.90;;;;;;4911492;29;20099;-69
2023/12/18 10:05:13;;;;;;;16.02;10.43;;;1.30;99.90;;;;;;4911487;29;20052;-69
2023/12/18 10:07:45;;;;;;;10.77;7.68;;;1.40;99.90;;;;;;4922928;29;20057;-69
2023/12/18 10:10:17;;;;;;;9.82;7.45;;;1.50;99.90;;;;;;4910082;29;20045;-68
2023/12/18 10:12:49;;;;;;;30.45;18.08;;;1.60;99.90;;;;;;4910844;29;20048;-68
2023/12/18 10:15:16;;;;;;;15.23;9.68;;;1.70;99.90;;;;;;4912193;29;20044;-68
2023/12/18 10:17:44;;;;;;;12.25;8.25;;;1.80;99.90;;;;;;4910055;29;20040;-68
2023/12/18 10:20:17;;;;;;;12.13;6.78;;;2.00;99.90;;;;;;4904762;29;20541;-68
2023/12/18 10:22:49;;;;;;;8.38;5.55;;;2.20;99.90;;;;;;4911865;29;20079;-68
2023/12/18 10:25:23;;;;;;;9.27;6.38;;;2.20;99.90;;;;;;4910504;29;20052;-68
2023/12/18 10:27:54;;;;;;;8.00;5.93;;;2.30;99.90;;;;;;4909437;29;20499;-67
2023/12/18 10:30:29;;;;;;;11.30;6.20;;;2.30;99.90;;;;;;4920428;29;20044;-68
2023/12/18 10:32:57;;;;;;;8.35;5.57;;;2.40;99.90;;;;;;4908621;29;20040;-68
2023/12/18 10:35:28;;;;;;;7.60;5.35;;;2.40;99.90;;;;;;4907174;29;20451;-68
2023/12/18 10:38:01;;;;;;;8.88;5.65;;;2.50;99.90;;;;;;4901714;29;20521;-68
2023/12/18 10:40:33;;;;;;;8.60;5.47;;;2.60;99.90;;;;;;4905511;29;20090;-68
2023/12/18 10:43:20;;;;;;;9.65;5.63;;;2.60;99.90;;;;;;4908383;29;20048;-68
2023/12/18 10:45:48;;;;;;;8.15;5.45;;;2.70;99.90;;;;;;4889321;29;20536;-68
2023/12/18 10:48:20;;;;;;;9.90;6.13;;;2.70;99.90;;;;;;4908888;29;20477;-68
2023/12/18 10:50:50;;;;;;;10.95;5.65;;;2.80;99.90;;;;;;4912005;29;20042;-68
2023/12/18 10:53:27;;;;;;;8.18;5.10;;;2.90;99.90;;;;;;4895784;29;20044;-68
2023/12/18 10:56:01;;;;;;;7.22;4.93;;;3.00;99.90;;;;;;4905570;29;20436;-69
2023/12/18 10:58:28;;;;;;;7.72;4.35;;;3.10;99.90;;;;;;4908873;29;20513;-69
2023/12/18 11:01:03;;;;;;;6.28;4.53;;;3.30;99.90;;;;;;4914642;29;20048;-69
2023/12/18 11:03:36;;;;;;;5.70;4.03;;;3.50;99.90;;;;;;4911956;29;20059;-69
2023/12/18 11:06:10;;;;;;;4.90;3.83;;;3.80;99.90;;;;;;4913416;29;20494;-69
2023/12/18 11:08:42;;;;;;;5.38;3.75;;;4.00;99.90;;;;;;4914200;29;20044;-68
2023/12/18 11:11:15;;;;;;;5.45;3.35;;;4.20;99.90;;;;;;4913273;29;20135;-68
2023/12/18 11:14:23;;;;;;;7.45;3.50;;;4.30;99.90;;;;;;4915670;29;20519;-68
2023/12/18 11:17:11;;;;;;;7.13;3.97;;;4.40;99.90;;;;;;4915384;29;20131;-67
2023/12/18 11:19:53;;;;;;;8.38;3.83;;;4.60;99.90;;;;;;4912169;29;20102;-68
2023/12/18 11:22:44;;;;;;;6.13;4.10;;;4.80;99.90;;;;;;4904601;29;20049;-68
2023/12/18 11:25:17;;;;;;;6.70;4.20;;;4.90;99.90;;;;;;4914207;29;20044;-67
2023/12/18 11:27:51;;;;;;;4.90;3.88;;;5.00;99.90;;;;;;4911078;29;20415;-68
2023/12/18 11:30:28;;;;;;;5.95;3.95;;;5.20;99.90;;;;;;4911278;29;20044;-67
2023/12/18 11:33:05;;;;;;;7.68;5.00;;;5.20;99.90;;;;;;4908739;29;20037;-68
2023/12/18 11:35:35;;;;;;;5.82;3.63;;;5.30;99.90;;;;;;4913265;29;20640;-68
2023/12/18 11:38:12;;;;;;;4.50;3.42;;;5.30;99.90;;;;;;4897652;29;20497;-68
2023/12/18 11:40:46;;;;;;;5.47;3.40;;;5.40;99.90;;;;;;4911624;29;20052;-68
2023/12/18 11:43:36;;;;;;;4.90;3.47;;;5.40;99.90;;;;;;4912968;29;20051;-68
2023/12/18 11:46:11;;;;;;;4.97;2.92;;;5.40;99.90;;;;;;4911482;29;20048;-68
2023/12/18 11:48:43;;;;;;;11.35;6.30;;;5.40;99.90;;;;;;4903592;29;20036;-67
2023/12/18 11:51:17;;;;;;;6.63;4.18;;;5.50;99.90;;;;;;4894163;29;20056;-68
2023/12/18 11:53:58;;;;;;;5.68;3.10;;;5.50;99.90;;;;;;4914086;29;20453;-67
2023/12/18 11:56:39;;;;;;;4.40;3.30;;;5.50;99.90;;;;;;4911379;29;20044;-68
2023/12/18 11:59:14;;;;;;;6.72;3.20;;;5.50;99.90;;;;;;4913610;29;20066;-68
2023/12/18 12:01:47;;;;;;;5.53;3.10;;;5.60;99.90;;;;;;4911946;29;20495;-68
2023/12/18 12:04:16;;;;;;;4.47;3.63;;;5.60;99.90;;;;;;4912925;29;20044;-67
2023/12/18 12:06:48;;;;;;;37.20;13.77;;;5.60;99.90;;;;;;4911351;29;20051;-68
2023/12/18 12:09:20;;;;;;;3.90;2.85;;;5.60;99.90;;;;;;4912531;29;20571;-68
2023/12/18 12:11:47;;;;;;;4.50;3.13;;;5.70;99.90;;;;;;4907028;29;20060;-68
2023/12/18 12:14:14;;;;;;;4.88;2.40;;;5.70;99.90;;;;;;4910461;29;20068;-67
2023/12/18 12:17:01;;;;;;;3.72;2.58;;;5.80;99.90;;;;;;4913202;29;20036;-67
2023/12/18 12:19:36;;;;;;;4.40;2.42;;;5.80;99.90;;;;;;4928327;29;20051;-67
2023/12/18 12:22:09;;;;;;;3.25;2.25;;;5.80;99.90;;;;;;4909564;29;20044;-67
2023/12/18 12:24:37;;;;;;;3.13;2.30;;;5.80;99.90;;;;;;4912430;29;20056;-67
2023/12/18 12:27:06;;;;;;;4.70;2.28;;;5.90;99.90;;;;;;4912092;29;20055;-67
2023/12/18 12:29:38;;;;;;;3.58;2.15;;;5.90;99.90;;;;;;4911378;29;20051;-67
2023/12/18 12:32:12;;;;;;;3.80;2.35;;;6.00;99.90;;;;;;4913630;29;20513;-67
2023/12/18 12:34:46;;;;;;;4.30;2.17;;;6.00;99.90;;;;;;4912728;29;20055;-67
2023/12/18 12:37:13;;;;;;;3.08;2.00;;;6.00;99.90;;;;;;4922797;29;20044;-67
2023/12/18 12:40:01;;;;;;;6.00;2.38;;;6.10;99.90;;;;;;4911606;29;20146;-67
2023/12/18 12:42:38;;;;;;;4.68;2.50;;;6.20;99.90;;;;;;4907260;29;20066;-67
2023/12/18 12:45:11;;;;;;;3.38;2.28;;;6.20;99.90;;;;;;4911365;29;20143;-67
2023/12/18 12:47:43;;;;;;;2.90;2.05;;;6.30;99.90;;;;;;4911585;29;20413;-67
2023/12/18 12:50:10;;;;;;;4.20;2.20;;;6.30;99.90;;;;;;4911379;29;20126;-67
2023/12/18 12:52:38;;;;;;;4.85;3.00;;;6.30;99.90;;;;;;4907751;29;20048;-67
2023/12/18 12:55:05;;;;;;;3.25;2.38;;;6.40;99.90;;;;;;4913744;29;20497;-67
2023/12/18 12:57:37;;;;;;;2.60;1.80;;;6.50;99.90;;;;;;4906316;29;20040;-68
2023/12/18 13:00:10;;;;;;;2.45;1.95;;;6.50;99.90;;;;;;4914826;29;20529;-68
2023/12/18 13:02:42;;;;;;;3.70;2.05;;;6.60;99.90;;;;;;4915434;29;20119;-68
2023/12/18 13:05:14;;;;;;;2.65;1.70;;;6.70;99.90;;;;;;4912209;29;20135;-67
2023/12/18 13:07:46;;;;;;;3.85;2.10;;;6.70;99.90;;;;;;4904314;29;20066;-67